sensor_id;sensor_type;location;lat;lon;timestamp;P1;durP1;ratioP1;P2;durP2;ratioP2
62977;SDS011;49073;42.352;23.808;2022-07-10T00:00:40;11.20;;;6.88;;
62977;SDS011;49073;42.352;23.808;2022-07-10T00:03:41;7.25;;;6.45;;
62977;SDS011;49073;42.352;23.808;2022-07-10T00:06:44;7.63;;;6.47;;
62977;SDS011;49073;42.352;23.808;2022-07-10T00:09:47;7.72;;;6.30;;
62977;SDS011;49073;42.352;23.808;2022-07-10T00:12:48;7.35;;;6.18;;
62977;SDS011;49073;42.352;23.808;2022-07-10T00:15:50;7.63;;;5.90;;
62977;SDS011;49073;42.352;23.808;2022-07-10T00:18:51;12.23;;;6.47;;
62977;SDS011;49073;42.352;23.808;2022-07-10T00:21:51;8.43;;;6.18;;
62977;SDS011;49073;42.352;23.808;2022-07-10T00:24:52;8.05;;;6.50;;
62977;SDS011;49073;42.352;23.808;2022-07-10T00:27:52;8.35;;;6.60;;
62977;SDS011;49073;42.352;23.808;2022-07-10T00:30:53;7.85;;;6.45;;
62977;SDS011;49073;42.352;23.808;2022-07-10T00:33:53;7.68;;;6.60;;
62977;SDS011;49073;42.352;23.808;2022-07-10T00:36:53;8.95;;;6.72;;
62977;SDS011;49073;42.352;23.808;2022-07-10T00:39:54;6.75;;;6.03;;
62977;SDS011;49073;42.352;23.808;2022-07-10T00:42:55;6.43;;;5.82;;
62977;SDS011;49073;42.352;23.808;2022-07-10T00:45:55;8.98;;;6.30;;
62977;SDS011;49073;42.352;23.808;2022-07-10T00:48:56;7.70;;;6.47;;
62977;SDS011;49073;42.352;23.808;2022-07-10T00:51:57;7.88;;;7.05;;
62977;SDS011;49073;42.352;23.808;2022-07-10T00:55:01;7.72;;;6.97;;
62977;SDS011;49073;42.352;23.808;2022-07-10T00:58:02;8.95;;;7.70;;
62977;SDS011;49073;42.352;23.808;2022-07-10T01:01:06;9.93;;;7.72;;
62977;SDS011;49073;42.352;23.808;2022-07-10T01:04:07;10.23;;;7.68;;
62977;SDS011;49073;42.352;23.808;2022-07-10T01:07:09;8.30;;;7.25;;
62977;SDS011;49073;42.352;23.808;2022-07-10T01:10:10;10.13;;;8.00;;
62977;SDS011;49073;42.352;23.808;2022-07-10T01:13:11;11.20;;;8.02;;
62977;SDS011;49073;42.352;23.808;2022-07-10T01:16:11;8.52;;;7.65;;
62977;SDS011;49073;42.352;23.808;2022-07-10T01:19:12;9.40;;;8.25;;
62977;SDS011;49073;42.352;23.808;2022-07-10T01:22:13;11.38;;;8.40;;
62977;SDS011;49073;42.352;23.808;2022-07-10T01:25:13;11.23;;;9.25;;
62977;SDS011;49073;42.352;23.808;2022-07-10T01:28:17;10.63;;;8.43;;
62977;SDS011;49073;42.352;23.808;2022-07-10T01:31:27;11.50;;;9.48;;
62977;SDS011;49073;42.352;23.808;2022-07-10T01:34:28;11.95;;;8.95;;
62977;SDS011;49073;42.352;23.808;2022-07-10T01:37:28;13.93;;;9.35;;
62977;SDS011;49073;42.352;23.808;2022-07-10T01:40:29;9.65;;;8.65;;
62977;SDS011;49073;42.352;23.808;2022-07-10T01:43:29;14.13;;;9.20;;
62977;SDS011;49073;42.352;23.808;2022-07-10T01:46:30;10.95;;;9.52;;
62977;SDS011;49073;42.352;23.808;2022-07-10T01:49:30;12.18;;;8.68;;
62977;SDS011;49073;42.352;23.808;2022-07-10T01:52:31;10.88;;;8.98;;
62977;SDS011;49073;42.352;23.808;2022-07-10T01:55:32;9.90;;;8.90;;
62977;SDS011;49073;42.352;23.808;2022-07-10T01:58:33;11.13;;;9.15;;
62977;SDS011;49073;42.352;23.808;2022-07-10T02:01:34;10.43;;;9.32;;
62977;SDS011;49073;42.352;23.808;2022-07-10T02:04:35;9.90;;;8.77;;
62977;SDS011;49073;42.352;23.808;2022-07-10T02:07:42;13.85;;;8.07;;
62977;SDS011;49073;42.352;23.808;2022-07-10T02:10:43;10.48;;;8.95;;
62977;SDS011;49073;42.352;23.808;2022-07-10T02:13:45;9.55;;;8.07;;
62977;SDS011;49073;42.352;23.808;2022-07-10T02:16:45;11.63;;;9.45;;
62977;SDS011;49073;42.352;23.808;2022-07-10T02:19:46;9.52;;;8.52;;
62977;SDS011;49073;42.352;23.808;2022-07-10T02:22:46;9.50;;;7.72;;
62977;SDS011;49073;42.352;23.808;2022-07-10T02:25:47;12.90;;;8.32;;
62977;SDS011;49073;42.352;23.808;2022-07-10T02:28:47;12.05;;;8.32;;
62977;SDS011;49073;42.352;23.808;2022-07-10T02:31:48;10.23;;;8.10;;
62977;SDS011;49073;42.352;23.808;2022-07-10T02:34:48;9.35;;;7.97;;
62977;SDS011;49073;42.352;23.808;2022-07-10T02:37:49;9.75;;;7.25;;
62977;SDS011;49073;42.352;23.808;2022-07-10T02:40:50;9.65;;;7.78;;
62977;SDS011;49073;42.352;23.808;2022-07-10T02:43:51;9.82;;;8.75;;
62977;SDS011;49073;42.352;23.808;2022-07-10T02:46:52;11.48;;;8.63;;
62977;SDS011;49073;42.352;23.808;2022-07-10T02:49:52;9.50;;;8.23;;
62977;SDS011;49073;42.352;23.808;2022-07-10T02:52:53;11.85;;;9.00;;
62977;SDS011;49073;42.352;23.808;2022-07-10T02:55:53;11.55;;;9.25;;
62977;SDS011;49073;42.352;23.808;2022-07-10T02:58:54;11.80;;;9.38;;
62977;SDS011;49073;42.352;23.808;2022-07-10T03:01:54;10.18;;;8.77;;
62977;SDS011;49073;42.352;23.808;2022-07-10T03:04:55;9.73;;;8.73;;
62977;SDS011;49073;42.352;23.808;2022-07-10T03:07:56;10.82;;;9.27;;
62977;SDS011;49073;42.352;23.808;2022-07-10T03:10:56;10.15;;;9.02;;
62977;SDS011;49073;42.352;23.808;2022-07-10T03:13:57;9.65;;;8.65;;
62977;SDS011;49073;42.352;23.808;2022-07-10T03:16:57;12.88;;;8.73;;
62977;SDS011;49073;42.352;23.808;2022-07-10T03:19:58;8.52;;;7.40;;
62977;SDS011;49073;42.352;23.808;2022-07-10T03:22:58;9.40;;;8.10;;
62977;SDS011;49073;42.352;23.808;2022-07-10T03:25:59;8.75;;;7.53;;
62977;SDS011;49073;42.352;23.808;2022-07-10T03:28:59;7.65;;;6.70;;
62977;SDS011;49073;42.352;23.808;2022-07-10T03:32:00;7.75;;;6.75;;
62977;SDS011;49073;42.352;23.808;2022-07-10T03:35:00;7.90;;;7.10;;
62977;SDS011;49073;42.352;23.808;2022-07-10T03:38:01;7.32;;;6.40;;
62977;SDS011;49073;42.352;23.808;2022-07-10T03:41:02;7.95;;;7.03;;
62977;SDS011;49073;42.352;23.808;2022-07-10T03:44:02;10.60;;;6.80;;
62977;SDS011;49073;42.352;23.808;2022-07-10T03:47:03;10.60;;;7.60;;
62977;SDS011;49073;42.352;23.808;2022-07-10T03:50:04;15.95;;;8.73;;
62977;SDS011;49073;42.352;23.808;2022-07-10T03:53:05;8.55;;;7.20;;
62977;SDS011;49073;42.352;23.808;2022-07-10T03:56:06;17.85;;;7.70;;
62977;SDS011;49073;42.352;23.808;2022-07-10T03:59:07;9.55;;;6.95;;
62977;SDS011;49073;42.352;23.808;2022-07-10T04:02:08;8.18;;;7.32;;
62977;SDS011;49073;42.352;23.808;2022-07-10T04:05:09;10.57;;;7.10;;
62977;SDS011;49073;42.352;23.808;2022-07-10T04:08:10;12.30;;;7.18;;
62977;SDS011;49073;42.352;23.808;2022-07-10T04:11:10;7.50;;;6.70;;
62977;SDS011;49073;42.352;23.808;2022-07-10T04:14:11;9.07;;;6.32;;
62977;SDS011;49073;42.352;23.808;2022-07-10T04:17:11;6.95;;;6.25;;
62977;SDS011;49073;42.352;23.808;2022-07-10T04:20:12;7.78;;;7.07;;
62977;SDS011;49073;42.352;23.808;2022-07-10T04:23:15;10.38;;;7.18;;
62977;SDS011;49073;42.352;23.808;2022-07-10T04:26:15;11.07;;;6.80;;
62977;SDS011;49073;42.352;23.808;2022-07-10T04:29:16;7.43;;;6.63;;
62977;SDS011;49073;42.352;23.808;2022-07-10T04:32:17;9.32;;;6.65;;
62977;SDS011;49073;42.352;23.808;2022-07-10T04:35:17;13.57;;;6.88;;
62977;SDS011;49073;42.352;23.808;2022-07-10T04:38:18;10.02;;;7.03;;
62977;SDS011;49073;42.352;23.808;2022-07-10T04:41:18;10.40;;;7.07;;
62977;SDS011;49073;42.352;23.808;2022-07-10T04:44:19;8.77;;;6.60;;
62977;SDS011;49073;42.352;23.808;2022-07-10T04:47:19;10.38;;;6.82;;
62977;SDS011;49073;42.352;23.808;2022-07-10T04:50:20;8.45;;;6.90;;
62977;SDS011;49073;42.352;23.808;2022-07-10T04:53:20;8.10;;;6.43;;
62977;SDS011;49073;42.352;23.808;2022-07-10T04:56:21;7.88;;;7.07;;
62977;SDS011;49073;42.352;23.808;2022-07-10T04:59:21;8.10;;;6.38;;
62977;SDS011;49073;42.352;23.808;2022-07-10T05:02:22;7.63;;;6.75;;
62977;SDS011;49073;42.352;23.808;2022-07-10T05:05:23;7.28;;;6.57;;
62977;SDS011;49073;42.352;23.808;2022-07-10T05:08:23;6.63;;;5.93;;
62977;SDS011;49073;42.352;23.808;2022-07-10T05:11:24;10.20;;;6.18;;
62977;SDS011;49073;42.352;23.808;2022-07-10T05:14:25;6.90;;;6.30;;
62977;SDS011;49073;42.352;23.808;2022-07-10T05:17:26;8.18;;;6.28;;
62977;SDS011;49073;42.352;23.808;2022-07-10T05:20:28;6.63;;;5.50;;
62977;SDS011;49073;42.352;23.808;2022-07-10T05:23:28;7.45;;;5.13;;
62977;SDS011;49073;42.352;23.808;2022-07-10T05:26:29;8.75;;;5.50;;
62977;SDS011;49073;42.352;23.808;2022-07-10T05:29:29;6.15;;;5.15;;
62977;SDS011;49073;42.352;23.808;2022-07-10T05:32:30;5.55;;;4.68;;
62977;SDS011;49073;42.352;23.808;2022-07-10T05:35:31;5.50;;;4.63;;
62977;SDS011;49073;42.352;23.808;2022-07-10T05:38:31;5.40;;;4.57;;
62977;SDS011;49073;42.352;23.808;2022-07-10T05:41:32;6.15;;;4.90;;
62977;SDS011;49073;42.352;23.808;2022-07-10T05:44:32;5.55;;;4.93;;
62977;SDS011;49073;42.352;23.808;2022-07-10T05:47:33;4.72;;;4.13;;
62977;SDS011;49073;42.352;23.808;2022-07-10T05:50:34;5.32;;;4.82;;
62977;SDS011;49073;42.352;23.808;2022-07-10T05:53:34;7.05;;;4.53;;
62977;SDS011;49073;42.352;23.808;2022-07-10T05:56:35;4.90;;;4.40;;
62977;SDS011;49073;42.352;23.808;2022-07-10T05:59:35;5.07;;;4.57;;
62977;SDS011;49073;42.352;23.808;2022-07-10T06:02:36;5.63;;;4.30;;
62977;SDS011;49073;42.352;23.808;2022-07-10T06:05:36;7.63;;;4.35;;
62977;SDS011;49073;42.352;23.808;2022-07-10T06:08:38;7.82;;;4.57;;
62977;SDS011;49073;42.352;23.808;2022-07-10T06:11:39;6.95;;;4.18;;
62977;SDS011;49073;42.352;23.808;2022-07-10T06:14:42;5.47;;;3.97;;
62977;SDS011;49073;42.352;23.808;2022-07-10T06:17:42;4.72;;;4.32;;
62977;SDS011;49073;42.352;23.808;2022-07-10T06:20:43;4.97;;;4.28;;
62977;SDS011;49073;42.352;23.808;2022-07-10T06:23:43;4.93;;;4.25;;
62977;SDS011;49073;42.352;23.808;2022-07-10T06:26:44;4.03;;;3.63;;
62977;SDS011;49073;42.352;23.808;2022-07-10T06:29:45;4.60;;;4.15;;
62977;SDS011;49073;42.352;23.808;2022-07-10T06:32:45;4.55;;;3.80;;
62977;SDS011;49073;42.352;23.808;2022-07-10T06:35:46;4.65;;;4.03;;
62977;SDS011;49073;42.352;23.808;2022-07-10T06:38:47;5.45;;;3.58;;
62977;SDS011;49073;42.352;23.808;2022-07-10T06:41:48;7.72;;;4.45;;
62977;SDS011;49073;42.352;23.808;2022-07-10T06:44:49;4.55;;;4.00;;
62977;SDS011;49073;42.352;23.808;2022-07-10T06:47:50;4.13;;;3.72;;
62977;SDS011;49073;42.352;23.808;2022-07-10T06:50:56;4.50;;;4.10;;
62977;SDS011;49073;42.352;23.808;2022-07-10T06:53:56;5.47;;;4.00;;
62977;SDS011;49073;42.352;23.808;2022-07-10T06:56:57;4.13;;;3.72;;
62977;SDS011;49073;42.352;23.808;2022-07-10T06:59:58;4.28;;;3.55;;
62977;SDS011;49073;42.352;23.808;2022-07-10T07:02:58;4.38;;;3.88;;
62977;SDS011;49073;42.352;23.808;2022-07-10T07:05:59;6.45;;;3.70;;
62977;SDS011;49073;42.352;23.808;2022-07-10T07:08:59;5.72;;;3.80;;
62977;SDS011;49073;42.352;23.808;2022-07-10T07:12:00;4.55;;;3.83;;
62977;SDS011;49073;42.352;23.808;2022-07-10T07:15:00;3.75;;;3.35;;
62977;SDS011;49073;42.352;23.808;2022-07-10T07:18:01;6.88;;;4.32;;
62977;SDS011;49073;42.352;23.808;2022-07-10T07:21:08;6.43;;;4.40;;
62977;SDS011;49073;42.352;23.808;2022-07-10T07:24:27;4.32;;;3.90;;
62977;SDS011;49073;42.352;23.808;2022-07-10T07:27:28;4.88;;;3.90;;
62977;SDS011;49073;42.352;23.808;2022-07-10T07:30:29;6.35;;;3.50;;
62977;SDS011;49073;42.352;23.808;2022-07-10T07:33:30;4.22;;;3.80;;
62977;SDS011;49073;42.352;23.808;2022-07-10T07:36:30;5.22;;;3.80;;
62977;SDS011;49073;42.352;23.808;2022-07-10T07:39:31;5.32;;;3.88;;
62977;SDS011;49073;42.352;23.808;2022-07-10T07:42:33;6.22;;;3.50;;
62977;SDS011;49073;42.352;23.808;2022-07-10T07:45:34;4.10;;;3.70;;
62977;SDS011;49073;42.352;23.808;2022-07-10T07:48:35;5.20;;;3.50;;
62977;SDS011;49073;42.352;23.808;2022-07-10T07:51:35;5.70;;;3.83;;
62977;SDS011;49073;42.352;23.808;2022-07-10T07:54:36;4.00;;;3.60;;
62977;SDS011;49073;42.352;23.808;2022-07-10T07:57:36;3.80;;;3.42;;
62977;SDS011;49073;42.352;23.808;2022-07-10T08:00:37;7.32;;;4.15;;
62977;SDS011;49073;42.352;23.808;2022-07-10T08:03:38;4.38;;;3.70;;
62977;SDS011;49073;42.352;23.808;2022-07-10T08:06:38;3.85;;;3.50;;
62977;SDS011;49073;42.352;23.808;2022-07-10T08:09:39;6.28;;;3.58;;
62977;SDS011;49073;42.352;23.808;2022-07-10T08:12:40;8.13;;;4.35;;
62977;SDS011;49073;42.352;23.808;2022-07-10T08:15:41;5.05;;;3.97;;
62977;SDS011;49073;42.352;23.808;2022-07-10T08:18:41;4.50;;;3.75;;
62977;SDS011;49073;42.352;23.808;2022-07-10T08:21:42;5.07;;;3.70;;
62977;SDS011;49073;42.352;23.808;2022-07-10T08:24:43;4.53;;;3.88;;
62977;SDS011;49073;42.352;23.808;2022-07-10T08:27:44;5.85;;;3.88;;
62977;SDS011;49073;42.352;23.808;2022-07-10T08:30:45;4.75;;;4.05;;
62977;SDS011;49073;42.352;23.808;2022-07-10T08:33:46;4.00;;;3.60;;
62977;SDS011;49073;42.352;23.808;2022-07-10T08:36:48;5.47;;;4.00;;
62977;SDS011;49073;42.352;23.808;2022-07-10T08:39:48;4.05;;;3.40;;
62977;SDS011;49073;42.352;23.808;2022-07-10T08:42:49;5.45;;;3.25;;
62977;SDS011;49073;42.352;23.808;2022-07-10T08:45:50;4.22;;;3.83;;
62977;SDS011;49073;42.352;23.808;2022-07-10T08:48:52;4.68;;;3.47;;
62977;SDS011;49073;42.352;23.808;2022-07-10T08:51:58;4.80;;;3.33;;
62977;SDS011;49073;42.352;23.808;2022-07-10T08:54:59;5.35;;;3.70;;
62977;SDS011;49073;42.352;23.808;2022-07-10T08:58:00;4.28;;;3.53;;
62977;SDS011;49073;42.352;23.808;2022-07-10T09:01:02;4.95;;;3.42;;
62977;SDS011;49073;42.352;23.808;2022-07-10T09:04:03;4.07;;;3.67;;
62977;SDS011;49073;42.352;23.808;2022-07-10T09:07:04;6.53;;;3.97;;
62977;SDS011;49073;42.352;23.808;2022-07-10T09:10:09;7.45;;;4.07;;
62977;SDS011;49073;42.352;23.808;2022-07-10T09:13:10;4.55;;;3.47;;
62977;SDS011;49073;42.352;23.808;2022-07-10T09:16:19;3.85;;;3.45;;
62977;SDS011;49073;42.352;23.808;2022-07-10T09:19:25;6.20;;;3.75;;
62977;SDS011;49073;42.352;23.808;2022-07-10T09:22:27;3.60;;;3.30;;
62977;SDS011;49073;42.352;23.808;2022-07-10T09:25:35;3.85;;;3.45;;
62977;SDS011;49073;42.352;23.808;2022-07-10T09:28:36;9.98;;;3.88;;
62977;SDS011;49073;42.352;23.808;2022-07-10T09:31:52;5.55;;;4.13;;
62977;SDS011;49073;42.352;23.808;2022-07-10T09:34:59;4.22;;;3.75;;
62977;SDS011;49073;42.352;23.808;2022-07-10T09:38:20;4.82;;;3.92;;
62977;SDS011;49073;42.352;23.808;2022-07-10T09:41:21;4.10;;;3.67;;
62977;SDS011;49073;42.352;23.808;2022-07-10T09:44:26;5.05;;;3.40;;
62977;SDS011;49073;42.352;23.808;2022-07-10T09:47:26;6.50;;;3.75;;
62977;SDS011;49073;42.352;23.808;2022-07-10T09:50:28;4.47;;;3.28;;
62977;SDS011;49073;42.352;23.808;2022-07-10T09:53:33;3.47;;;3.17;;
62977;SDS011;49073;42.352;23.808;2022-07-10T09:56:44;3.97;;;3.38;;
62977;SDS011;49073;42.352;23.808;2022-07-10T09:59:46;3.40;;;3.10;;
62977;SDS011;49073;42.352;23.808;2022-07-10T10:02:47;3.60;;;3.30;;
62977;SDS011;49073;42.352;23.808;2022-07-10T10:05:54;4.35;;;3.40;;
62977;SDS011;49073;42.352;23.808;2022-07-10T10:09:04;5.70;;;3.42;;
62977;SDS011;49073;42.352;23.808;2022-07-10T10:12:21;3.22;;;2.92;;
62977;SDS011;49073;42.352;23.808;2022-07-10T10:15:33;6.95;;;3.38;;
62977;SDS011;49073;42.352;23.808;2022-07-10T10:18:34;7.72;;;3.55;;
62977;SDS011;49073;42.352;23.808;2022-07-10T10:21:36;4.88;;;3.00;;
62977;SDS011;49073;42.352;23.808;2022-07-10T10:24:38;4.93;;;3.53;;
62977;SDS011;49073;42.352;23.808;2022-07-10T10:27:39;8.75;;;3.30;;
62977;SDS011;49073;42.352;23.808;2022-07-10T10:30:41;4.07;;;3.38;;
62977;SDS011;49073;42.352;23.808;2022-07-10T10:33:44;73.10;;;36.50;;
62977;SDS011;49073;42.352;23.808;2022-07-10T10:36:46;5.28;;;3.63;;
62977;SDS011;49073;42.352;23.808;2022-07-10T10:39:56;6.32;;;3.83;;
62977;SDS011;49073;42.352;23.808;2022-07-10T10:42:58;24.45;;;11.63;;
62977;SDS011;49073;42.352;23.808;2022-07-10T10:46:25;10.98;;;4.80;;
62977;SDS011;49073;42.352;23.808;2022-07-10T10:49:25;19.75;;;11.82;;
62977;SDS011;49073;42.352;23.808;2022-07-10T10:52:26;13.35;;;8.90;;
62977;SDS011;49073;42.352;23.808;2022-07-10T10:55:27;7.90;;;6.10;;
62977;SDS011;49073;42.352;23.808;2022-07-10T10:58:28;8.02;;;4.32;;
62977;SDS011;49073;42.352;23.808;2022-07-10T11:01:35;4.80;;;3.55;;
62977;SDS011;49073;42.352;23.808;2022-07-10T11:04:37;4.90;;;3.60;;
62977;SDS011;49073;42.352;23.808;2022-07-10T11:10:55;4.55;;;3.85;;
62977;SDS011;49073;42.352;23.808;2022-07-10T11:13:58;4.25;;;3.17;;
62977;SDS011;49073;42.352;23.808;2022-07-10T11:16:59;3.33;;;3.03;;
62977;SDS011;49073;42.352;23.808;2022-07-10T11:20:01;4.65;;;3.42;;
62977;SDS011;49073;42.352;23.808;2022-07-10T11:29:36;3.63;;;2.83;;
62977;SDS011;49073;42.352;23.808;2022-07-10T11:32:38;4.32;;;3.10;;
62977;SDS011;49073;42.352;23.808;2022-07-10T11:35:38;3.60;;;3.10;;
62977;SDS011;49073;42.352;23.808;2022-07-10T11:38:41;4.70;;;2.75;;
62977;SDS011;49073;42.352;23.808;2022-07-10T11:41:43;3.80;;;2.80;;
62977;SDS011;49073;42.352;23.808;2022-07-10T11:44:47;3.35;;;2.97;;
62977;SDS011;49073;42.352;23.808;2022-07-10T11:47:48;3.95;;;2.90;;
62977;SDS011;49073;42.352;23.808;2022-07-10T11:50:48;4.55;;;2.80;;
62977;SDS011;49073;42.352;23.808;2022-07-10T11:57:19;5.95;;;3.28;;
62977;SDS011;49073;42.352;23.808;2022-07-10T12:00:29;7.22;;;3.03;;
62977;SDS011;49073;42.352;23.808;2022-07-10T12:03:30;4.60;;;3.10;;
62977;SDS011;49073;42.352;23.808;2022-07-10T12:06:33;4.63;;;2.83;;
62977;SDS011;49073;42.352;23.808;2022-07-10T12:09:35;3.42;;;2.78;;
62977;SDS011;49073;42.352;23.808;2022-07-10T12:12:38;3.38;;;2.80;;
62977;SDS011;49073;42.352;23.808;2022-07-10T12:15:43;3.65;;;3.03;;
62977;SDS011;49073;42.352;23.808;2022-07-10T12:18:45;4.32;;;2.97;;
62977;SDS011;49073;42.352;23.808;2022-07-10T12:21:48;3.97;;;2.78;;
62977;SDS011;49073;42.352;23.808;2022-07-10T12:24:48;3.95;;;2.88;;
62977;SDS011;49073;42.352;23.808;2022-07-10T12:27:49;5.28;;;3.20;;
62977;SDS011;49073;42.352;23.808;2022-07-10T12:30:55;3.60;;;3.15;;
62977;SDS011;49073;42.352;23.808;2022-07-10T12:33:56;4.70;;;2.97;;
62977;SDS011;49073;42.352;23.808;2022-07-10T12:37:07;3.65;;;2.90;;
62977;SDS011;49073;42.352;23.808;2022-07-10T12:40:09;3.80;;;3.08;;
62977;SDS011;49073;42.352;23.808;2022-07-10T12:43:12;3.40;;;3.00;;
62977;SDS011;49073;42.352;23.808;2022-07-10T12:46:16;6.72;;;3.50;;
62977;SDS011;49073;42.352;23.808;2022-07-10T12:49:21;4.88;;;3.25;;
62977;SDS011;49073;42.352;23.808;2022-07-10T12:52:25;4.30;;;2.90;;
62977;SDS011;49073;42.352;23.808;2022-07-10T12:55:34;5.07;;;2.85;;
62977;SDS011;49073;42.352;23.808;2022-07-10T12:58:35;3.88;;;2.75;;
62977;SDS011;49073;42.352;23.808;2022-07-10T13:01:43;2.95;;;2.58;;
62977;SDS011;49073;42.352;23.808;2022-07-10T13:04:53;4.75;;;2.50;;
62977;SDS011;49073;42.352;23.808;2022-07-10T13:11:19;6.45;;;2.80;;
62977;SDS011;49073;42.352;23.808;2022-07-10T13:14:20;3.60;;;2.70;;
62977;SDS011;49073;42.352;23.808;2022-07-10T13:17:21;3.58;;;2.72;;
62977;SDS011;49073;42.352;23.808;2022-07-10T13:20:21;7.88;;;3.25;;
62977;SDS011;49073;42.352;23.808;2022-07-10T13:23:22;3.53;;;2.63;;
62977;SDS011;49073;42.352;23.808;2022-07-10T13:26:25;4.88;;;3.00;;
62977;SDS011;49073;42.352;23.808;2022-07-10T13:29:26;3.97;;;2.38;;
62977;SDS011;49073;42.352;23.808;2022-07-10T13:32:26;5.20;;;2.40;;
62977;SDS011;49073;42.352;23.808;2022-07-10T13:35:29;5.88;;;3.10;;
62977;SDS011;49073;42.352;23.808;2022-07-10T13:38:31;4.85;;;2.80;;
62977;SDS011;49073;42.352;23.808;2022-07-10T13:41:32;2.85;;;2.35;;
62977;SDS011;49073;42.352;23.808;2022-07-10T13:44:33;3.60;;;2.40;;
62977;SDS011;49073;42.352;23.808;2022-07-10T13:47:34;3.15;;;2.72;;
62977;SDS011;49073;42.352;23.808;2022-07-10T13:50:38;6.60;;;2.60;;
62977;SDS011;49073;42.352;23.808;2022-07-10T13:53:43;5.57;;;2.33;;
62977;SDS011;49073;42.352;23.808;2022-07-10T13:56:43;3.72;;;2.40;;
62977;SDS011;49073;42.352;23.808;2022-07-10T13:59:44;3.67;;;2.60;;
62977;SDS011;49073;42.352;23.808;2022-07-10T14:02:45;4.53;;;2.47;;
62977;SDS011;49073;42.352;23.808;2022-07-10T14:05:46;2.67;;;2.10;;
62977;SDS011;49073;42.352;23.808;2022-07-10T14:08:47;2.85;;;2.33;;
62977;SDS011;49073;42.352;23.808;2022-07-10T14:11:47;2.80;;;2.15;;
62977;SDS011;49073;42.352;23.808;2022-07-10T14:14:48;2.35;;;1.95;;
62977;SDS011;49073;42.352;23.808;2022-07-10T14:17:49;4.13;;;1.63;;
62977;SDS011;49073;42.352;23.808;2022-07-10T14:20:51;4.40;;;2.03;;
62977;SDS011;49073;42.352;23.808;2022-07-10T14:24:04;3.67;;;2.13;;
62977;SDS011;49073;42.352;23.808;2022-07-10T14:27:05;2.75;;;2.35;;
62977;SDS011;49073;42.352;23.808;2022-07-10T14:30:06;3.67;;;2.30;;
62977;SDS011;49073;42.352;23.808;2022-07-10T14:33:07;3.97;;;2.17;;
62977;SDS011;49073;42.352;23.808;2022-07-10T14:36:08;2.92;;;2.15;;
62977;SDS011;49073;42.352;23.808;2022-07-10T14:39:09;3.92;;;1.90;;
62977;SDS011;49073;42.352;23.808;2022-07-10T14:42:12;2.83;;;2.05;;
62977;SDS011;49073;42.352;23.808;2022-07-10T14:45:12;2.10;;;1.63;;
62977;SDS011;49073;42.352;23.808;2022-07-10T14:48:13;2.53;;;1.90;;
62977;SDS011;49073;42.352;23.808;2022-07-10T14:51:13;2.65;;;1.73;;
62977;SDS011;49073;42.352;23.808;2022-07-10T14:54:15;1.60;;;1.50;;
62977;SDS011;49073;42.352;23.808;2022-07-10T14:57:15;1.95;;;1.77;;
62977;SDS011;49073;42.352;23.808;2022-07-10T15:00:16;2.15;;;1.70;;
62977;SDS011;49073;42.352;23.808;2022-07-10T15:03:18;3.15;;;1.85;;
62977;SDS011;49073;42.352;23.808;2022-07-10T15:06:18;3.53;;;1.70;;
62977;SDS011;49073;42.352;23.808;2022-07-10T15:09:19;1.70;;;1.60;;
62977;SDS011;49073;42.352;23.808;2022-07-10T15:12:19;2.67;;;1.85;;
62977;SDS011;49073;42.352;23.808;2022-07-10T15:15:20;2.25;;;1.80;;
62977;SDS011;49073;42.352;23.808;2022-07-10T15:18:22;2.95;;;1.63;;
62977;SDS011;49073;42.352;23.808;2022-07-10T15:21:22;3.13;;;1.70;;
62977;SDS011;49073;42.352;23.808;2022-07-10T15:24:24;2.55;;;1.83;;
62977;SDS011;49073;42.352;23.808;2022-07-10T15:27:24;2.03;;;1.50;;
62977;SDS011;49073;42.352;23.808;2022-07-10T15:30:24;3.60;;;2.20;;
62977;SDS011;49073;42.352;23.808;2022-07-10T15:33:26;6.82;;;2.10;;
62977;SDS011;49073;42.352;23.808;2022-07-10T15:36:27;2.38;;;1.52;;
62977;SDS011;49073;42.352;23.808;2022-07-10T15:39:28;2.33;;;1.63;;
62977;SDS011;49073;42.352;23.808;2022-07-10T15:42:28;4.43;;;1.63;;
62977;SDS011;49073;42.352;23.808;2022-07-10T15:45:29;4.00;;;1.60;;
62977;SDS011;49073;42.352;23.808;2022-07-10T15:48:30;3.58;;;1.85;;
62977;SDS011;49073;42.352;23.808;2022-07-10T15:51:31;4.22;;;2.85;;
62977;SDS011;49073;42.352;23.808;2022-07-10T15:54:31;4.15;;;2.90;;
62977;SDS011;49073;42.352;23.808;2022-07-10T15:57:32;3.67;;;1.95;;
62977;SDS011;49073;42.352;23.808;2022-07-10T16:00:32;3.67;;;1.90;;
62977;SDS011;49073;42.352;23.808;2022-07-10T16:03:34;2.28;;;1.77;;
62977;SDS011;49073;42.352;23.808;2022-07-10T16:06:34;4.60;;;1.90;;
62977;SDS011;49073;42.352;23.808;2022-07-10T16:09:35;3.92;;;1.90;;
62977;SDS011;49073;42.352;23.808;2022-07-10T16:12:35;2.83;;;1.90;;
62977;SDS011;49073;42.352;23.808;2022-07-10T16:15:37;2.13;;;1.80;;
62977;SDS011;49073;42.352;23.808;2022-07-10T16:18:40;2.47;;;2.10;;
62977;SDS011;49073;42.352;23.808;2022-07-10T16:21:40;2.22;;;1.70;;
62977;SDS011;49073;42.352;23.808;2022-07-10T16:24:41;2.53;;;2.03;;
62977;SDS011;49073;42.352;23.808;2022-07-10T16:28:00;4.40;;;1.90;;
62977;SDS011;49073;42.352;23.808;2022-07-10T16:31:01;1.60;;;1.40;;
62977;SDS011;49073;42.352;23.808;2022-07-10T16:34:02;6.50;;;2.78;;
62977;SDS011;49073;42.352;23.808;2022-07-10T16:37:02;4.50;;;1.63;;
62977;SDS011;49073;42.352;23.808;2022-07-10T16:40:03;6.13;;;1.88;;
62977;SDS011;49073;42.352;23.808;2022-07-10T16:43:04;2.67;;;1.75;;
62977;SDS011;49073;42.352;23.808;2022-07-10T16:46:04;3.75;;;1.80;;
62977;SDS011;49073;42.352;23.808;2022-07-10T16:49:05;2.15;;;1.80;;
62977;SDS011;49073;42.352;23.808;2022-07-10T16:52:05;4.95;;;2.13;;
62977;SDS011;49073;42.352;23.808;2022-07-10T16:55:09;1.88;;;1.63;;
62977;SDS011;49073;42.352;23.808;2022-07-10T16:58:10;4.70;;;2.08;;
62977;SDS011;49073;42.352;23.808;2022-07-10T17:01:12;3.83;;;1.98;;
62977;SDS011;49073;42.352;23.808;2022-07-10T17:04:13;3.33;;;2.00;;
62977;SDS011;49073;42.352;23.808;2022-07-10T17:07:13;7.35;;;1.90;;
62977;SDS011;49073;42.352;23.808;2022-07-10T17:10:14;2.53;;;1.88;;
62977;SDS011;49073;42.352;23.808;2022-07-10T17:13:14;3.33;;;1.85;;
62977;SDS011;49073;42.352;23.808;2022-07-10T17:16:15;2.42;;;1.90;;
62977;SDS011;49073;42.352;23.808;2022-07-10T17:19:15;2.67;;;1.67;;
62977;SDS011;49073;42.352;23.808;2022-07-10T17:22:16;2.88;;;1.88;;
62977;SDS011;49073;42.352;23.808;2022-07-10T17:25:16;2.30;;;1.98;;
62977;SDS011;49073;42.352;23.808;2022-07-10T17:28:17;3.53;;;1.73;;
62977;SDS011;49073;42.352;23.808;2022-07-10T17:31:17;4.47;;;1.77;;
62977;SDS011;49073;42.352;23.808;2022-07-10T17:34:18;2.85;;;1.77;;
62977;SDS011;49073;42.352;23.808;2022-07-10T17:37:18;3.60;;;1.60;;
62977;SDS011;49073;42.352;23.808;2022-07-10T17:40:19;2.30;;;1.77;;
62977;SDS011;49073;42.352;23.808;2022-07-10T17:43:19;3.83;;;1.70;;
62977;SDS011;49073;42.352;23.808;2022-07-10T17:46:20;2.13;;;1.77;;
62977;SDS011;49073;42.352;23.808;2022-07-10T17:49:20;2.20;;;1.55;;
62977;SDS011;49073;42.352;23.808;2022-07-10T17:52:21;1.90;;;1.60;;
62977;SDS011;49073;42.352;23.808;2022-07-10T17:55:22;2.03;;;1.60;;
62977;SDS011;49073;42.352;23.808;2022-07-10T17:58:22;4.18;;;1.80;;
62977;SDS011;49073;42.352;23.808;2022-07-10T18:01:23;3.05;;;1.70;;
62977;SDS011;49073;42.352;23.808;2022-07-10T18:04:23;2.10;;;1.65;;
62977;SDS011;49073;42.352;23.808;2022-07-10T18:07:24;2.42;;;1.73;;
62977;SDS011;49073;42.352;23.808;2022-07-10T18:10:24;2.60;;;1.77;;
62977;SDS011;49073;42.352;23.808;2022-07-10T18:13:25;1.92;;;1.70;;